Time;durP1;ratioP1;P1;durP2;ratioP2;P2;SDS_P1;SDS_P2;PMS_P1;PMS_P2;Temp;Humidity;BMP_temperature;BMP_pressure;BME280_temperature;BME280_humidity;BME280_pressure;Samples;Min_cycle;Max_cycle;Signal;HPM_P1;HPM_P2
2023/03/05 00:02:12;;;;;;;20.77;8.13;;;;;;;;;;5053158;28;20396;-78
2023/03/05 00:04:37;;;;;;;21.57;8.60;;;;;;;;;;5036644;28;20069;-78
2023/03/05 00:07:04;;;;;;;17.77;8.03;;;;;;;;;;5032664;28;20095;-79
2023/03/05 00:09:30;;;;;;;24.50;8.97;;;;;;;;;;5042730;28;20108;-78
2023/03/05 00:11:55;;;;;;;20.73;9.53;;;;;;;;;;5051974;28;20112;-79
2023/03/05 00:14:21;;;;;;;18.17;8.27;;;;;;;;;;5050635;28;20433;-80
2023/03/05 00:16:47;;;;;;;24.53;8.77;;;;;;;;;;5052509;28;20025;-79
2023/03/05 00:19:12;;;;;;;17.00;8.07;;;;;;;;;;5049821;28;20064;-80
2023/03/05 00:21:40;;;;;;;16.00;8.30;;;;;;;;;;5051167;28;20515;-80
2023/03/05 00:24:09;;;;;;;22.13;8.80;;;;;;;;;;5041139;28;20389;-78
2023/03/05 00:26:37;;;;;;;25.37;10.23;;;;;;;;;;5032778;28;20252;-79
2023/03/05 00:29:04;;;;;;;19.13;8.90;;;;;;;;;;5030950;28;20030;-78
2023/03/05 00:31:31;;;;;;;27.53;9.13;;;;;;;;;;5032501;28;20094;-79
2023/03/05 00:34:03;;;;;;;17.63;9.23;;;;;;;;;;5037994;28;20029;-80
2023/03/05 00:36:29;;;;;;;21.73;8.63;;;;;;;;;;5050789;28;20025;-78
2023/03/05 00:38:55;;;;;;;22.93;8.73;;;;;;;;;;5044157;28;20068;-79
2023/03/05 00:41:20;;;;;;;23.80;9.80;;;;;;;;;;5032398;28;20719;-80
2023/03/05 00:43:46;;;;;;;24.03;10.77;;;;;;;;;;5030735;28;20365;-78
2023/03/05 00:46:12;;;;;;;19.13;9.07;;;;;;;;;;5032137;28;20044;-80
2023/03/05 00:48:37;;;;;;;19.07;8.93;;;;;;;;;;5031932;28;20025;-79
2023/03/05 00:51:03;;;;;;;22.80;9.20;;;;;;;;;;5030460;28;20025;-79
2023/03/05 00:53:29;;;;;;;22.03;8.73;;;;;;;;;;5031964;28;20036;-78
2023/03/05 00:55:54;;;;;;;22.53;9.50;;;;;;;;;;5012617;28;20060;-80
2023/03/05 00:58:20;;;;;;;18.07;8.13;;;;;;;;;;5030636;28;20029;-79
2023/03/05 01:00:49;;;;;;;20.37;8.80;;;;;;;;;;5031250;28;20030;-78
2023/03/05 01:03:15;;;;;;;21.10;9.57;;;;;;;;;;5030263;28;20213;-78
2023/03/05 01:05:41;;;;;;;20.57;9.63;;;;;;;;;;5051563;28;20025;-78
2023/03/05 01:08:06;;;;;;;18.63;8.33;;;;;;;;;;5051712;28;20021;-80
2023/03/05 01:10:32;;;;;;;18.30;8.27;;;;;;;;;;5015499;28;20037;-79
2023/03/05 01:12:58;;;;;;;20.60;9.83;;;;;;;;;;5029905;28;20040;-78
2023/03/05 01:15:24;;;;;;;20.37;8.07;;;;;;;;;;5032125;28;20481;-77
2023/03/05 01:17:50;;;;;;;17.07;7.30;;;;;;;;;;5029800;28;20473;-78
2023/03/05 01:20:18;;;;;;;14.97;7.47;;;;;;;;;;5030919;28;20037;-79
2023/03/05 01:22:43;;;;;;;15.03;7.53;;;;;;;;;;5013460;28;20869;-79
2023/03/05 01:25:10;;;;;;;19.40;8.10;;;;;;;;;;5030897;28;20029;-78
2023/03/05 01:27:36;;;;;;;21.23;8.37;;;;;;;;;;5030939;28;20419;-78
2023/03/05 01:30:01;;;;;;;19.20;7.20;;;;;;;;;;5029561;28;20025;-79
2023/03/05 01:32:27;;;;;;;13.97;6.67;;;;;;;;;;5031155;28;20053;-78
2023/03/05 01:34:52;;;;;;;16.07;7.23;;;;;;;;;;5041992;28;20471;-79
2023/03/05 01:37:18;;;;;;;19.03;7.17;;;;;;;;;;5051433;28;20029;-79
2023/03/05 01:39:43;;;;;;;14.20;6.13;;;;;;;;;;5050196;28;20482;-79
2023/03/05 01:42:10;;;;;;;10.17;5.83;;;;;;;;;;5049930;28;20083;-80
2023/03/05 01:44:36;;;;;;;12.70;5.90;;;;;;;;;;5051881;28;20032;-79
2023/03/05 01:47:01;;;;;;;15.00;7.00;;;;;;;;;;5050591;28;20035;-78
2023/03/05 01:49:34;;;;;;;13.03;5.73;;;;;;;;;;5051205;28;20033;-78
2023/03/05 01:52:02;;;;;;;11.03;6.10;;;;;;;;;;5050176;28;20116;-79
2023/03/05 01:54:46;;;;;;;14.43;5.47;;;;;;;;;;5043597;28;20040;-79
2023/03/05 01:57:20;;;;;;;22.53;6.17;;;;;;;;;;5029572;28;20140;-80
2023/03/05 01:59:49;;;;;;;19.00;7.27;;;;;;;;;;5029791;28;20128;-78
2023/03/05 02:02:16;;;;;;;18.23;7.00;;;;;;;;;;5030494;28;20030;-79
2023/03/05 02:04:47;;;;;;;16.77;7.20;;;;;;;;;;5029564;28;20499;-79
2023/03/05 02:07:14;;;;;;;16.93;6.87;;;;;;;;;;5029745;28;20079;-78
2023/03/05 02:09:40;;;;;;;16.97;6.77;;;;;;;;;;5036966;28;20056;-78
2023/03/05 02:12:07;;;;;;;21.20;9.33;;;;;;;;;;5048510;28;20387;-80
2023/03/05 02:14:34;;;;;;;19.70;8.77;;;;;;;;;;5048806;28;20067;-79
2023/03/05 02:16:59;;;;;;;19.13;8.07;;;;;;;;;;5049234;28;20432;-80
2023/03/05 02:19:25;;;;;;;17.77;7.60;;;;;;;;;;5043203;28;20104;-79
2023/03/05 02:21:51;;;;;;;15.60;7.43;;;;;;;;;;5030081;28;20094;-77
2023/03/05 02:24:38;;;;;;;16.60;7.87;;;;;;;;;;5028718;28;20108;-79
2023/03/05 02:27:05;;;;;;;14.03;7.00;;;;;;;;;;5029768;28;20092;-77
2023/03/05 02:29:32;;;;;;;12.17;7.13;;;;;;;;;;5029211;28;20018;-79
2023/03/05 02:31:58;;;;;;;14.47;6.30;;;;;;;;;;5029552;28;20048;-79
2023/03/05 02:34:24;;;;;;;11.10;5.80;;;;;;;;;;5029810;28;20044;-80
2023/03/05 02:36:49;;;;;;;10.00;5.60;;;;;;;;;;5029331;28;20397;-79
2023/03/05 02:39:16;;;;;;;15.23;5.97;;;;;;;;;;5030685;28;20401;-78
2023/03/05 02:41:42;;;;;;;10.53;5.03;;;;;;;;;;5048488;28;20048;-78
2023/03/05 02:44:08;;;;;;;11.60;5.27;;;;;;;;;;5052318;28;20532;-80
2023/03/05 02:46:33;;;;;;;10.47;5.37;;;;;;;;;;5053450;28;20496;-79
2023/03/05 02:48:59;;;;;;;10.87;5.23;;;;;;;;;;5053917;28;20052;-78
2023/03/05 02:51:25;;;;;;;9.13;5.27;;;;;;;;;;5054288;28;20036;-78
2023/03/05 02:53:50;;;;;;;9.30;4.63;;;;;;;;;;5052877;28;20029;-79
2023/03/05 02:56:16;;;;;;;12.90;5.43;;;;;;;;;;5036146;28;20057;-79
2023/03/05 02:58:41;;;;;;;9.90;5.10;;;;;;;;;;5034546;28;20033;-79
2023/03/05 03:01:09;;;;;;;12.17;5.10;;;;;;;;;;5034126;28;20025;-79
2023/03/05 03:03:35;;;;;;;11.77;4.97;;;;;;;;;;5032075;28;20068;-77
2023/03/05 03:06:01;;;;;;;14.70;5.83;;;;;;;;;;5032122;28;20040;-78
2023/03/05 03:08:27;;;;;;;11.33;5.80;;;;;;;;;;5033644;28;20502;-78
2023/03/05 03:10:52;;;;;;;11.17;5.93;;;;;;;;;;5033706;28;20021;-79
2023/03/05 03:13:18;;;;;;;12.67;5.47;;;;;;;;;;5034563;28;20033;-78
2023/03/05 03:15:43;;;;;;;14.30;5.83;;;;;;;;;;5033494;28;20033;-78
2023/03/05 03:18:09;;;;;;;10.87;6.03;;;;;;;;;;5034073;28;20393;-78
2023/03/05 03:20:37;;;;;;;11.40;5.03;;;;;;;;;;5033220;28;20198;-78
2023/03/05 03:23:04;;;;;;;17.77;5.93;;;;;;;;;;5033807;28;20036;-79
2023/03/05 03:25:29;;;;;;;11.77;4.93;;;;;;;;;;5043935;28;20032;-78
2023/03/05 03:27:56;;;;;;;7.53;4.70;;;;;;;;;;5053575;28;20033;-79
2023/03/05 03:30:22;;;;;;;16.90;5.70;;;;;;;;;;5053158;28;20033;-79
2023/03/05 03:32:50;;;;;;;11.47;4.90;;;;;;;;;;5053762;28;20041;-78
2023/03/05 03:35:15;;;;;;;6.67;3.83;;;;;;;;;;5045173;28;20381;-78
2023/03/05 03:37:41;;;;;;;12.60;6.00;;;;;;;;;;5033707;28;20040;-78
2023/03/05 03:40:07;;;;;;;8.60;4.33;;;;;;;;;;5032413;28;20095;-79
2023/03/05 03:42:32;;;;;;;12.00;4.40;;;;;;;;;;5032433;28;20061;-79
2023/03/05 03:44:59;;;;;;;9.27;4.63;;;;;;;;;;5031426;28;20095;-79
2023/03/05 03:47:24;;;;;;;8.27;4.30;;;;;;;;;;5031174;28;20136;-79
2023/03/05 03:49:53;;;;;;;11.13;4.20;;;;;;;;;;5031560;28;20112;-79
2023/03/05 03:52:19;;;;;;;10.60;4.47;;;;;;;;;;5032183;28;20082;-79
2023/03/05 03:54:45;;;;;;;10.90;4.50;;;;;;;;;;5033548;28;20066;-79
2023/03/05 03:57:10;;;;;;;13.50;5.00;;;;;;;;;;5033594;28;20080;-80
2023/03/05 03:59:35;;;;;;;18.20;5.97;;;;;;;;;;5033590;28;20029;-79
2023/03/05 04:02:01;;;;;;;22.40;6.87;;;;;;;;;;5033270;28;20033;-78
2023/03/05 04:04:27;;;;;;;16.63;7.47;;;;;;;;;;5032313;28;20105;-78
2023/03/05 04:06:53;;;;;;;15.30;7.17;;;;;;;;;;5034089;28;20471;-78
2023/03/05 04:09:18;;;;;;;13.10;7.00;;;;;;;;;;5029296;28;20089;-80
2023/03/05 04:11:44;;;;;;;18.70;8.60;;;;;;;;;;5027943;28;20061;-79
2023/03/05 04:14:09;;;;;;;16.00;7.87;;;;;;;;;;5028844;28;20037;-79
2023/03/05 04:16:35;;;;;;;14.87;7.60;;;;;;;;;;5025890;28;20030;-78
2023/03/05 04:19:00;;;;;;;16.77;7.20;;;;;;;;;;5011428;28;20157;-77
2023/03/05 04:21:26;;;;;;;10.70;5.67;;;;;;;;;;5018866;28;20062;-78
2023/03/05 04:23:52;;;;;;;10.43;5.10;;;;;;;;;;5011156;28;20461;-80
2023/03/05 04:26:17;;;;;;;14.23;5.30;;;;;;;;;;5027212;28;20493;-78
2023/03/05 04:28:43;;;;;;;11.27;5.03;;;;;;;;;;4994645;28;20030;-80
2023/03/05 04:31:08;;;;;;;9.40;3.67;;;;;;;;;;5016165;28;20056;-79
2023/03/05 04:33:34;;;;;;;10.67;3.90;;;;;;;;;;5012719;28;20026;-79
2023/03/05 04:35:59;;;;;;;11.00;3.93;;;;;;;;;;5021907;28;20493;-78
2023/03/05 04:38:25;;;;;;;7.10;3.43;;;;;;;;;;5028594;28;20342;-78
2023/03/05 04:40:50;;;;;;;5.73;3.40;;;;;;;;;;5021834;28;20430;-78
2023/03/05 04:43:16;;;;;;;8.73;3.47;;;;;;;;;;5030536;28;20059;-79
2023/03/05 04:45:42;;;;;;;9.77;3.80;;;;;;;;;;5030531;28;20183;-79
2023/03/05 04:48:09;;;;;;;7.20;3.70;;;;;;;;;;5030734;28;20033;-79
2023/03/05 04:50:37;;;;;;;10.57;3.57;;;;;;;;;;5037005;28;20048;-79
2023/03/05 04:53:03;;;;;;;13.47;4.47;;;;;;;;;;5049698;28;20025;-77
2023/03/05 04:55:29;;;;;;;9.67;4.07;;;;;;;;;;5037345;28;20029;-79
2023/03/05 04:57:54;;;;;;;8.03;4.13;;;;;;;;;;5050907;28;20052;-78
2023/03/05 05:00:20;;;;;;;11.30;3.40;;;;;;;;;;5050139;28;20035;-79
2023/03/05 05:02:49;;;;;;;14.10;3.47;;;;;;;;;;5051353;28;20028;-79
2023/03/05 05:05:21;;;;;;;13.50;4.03;;;;;;;;;;5050365;28;20451;-80
2023/03/05 05:07:47;;;;;;;10.97;4.70;;;;;;;;;;5051639;28;20150;-80
2023/03/05 05:10:13;;;;;;;10.27;4.37;;;;;;;;;;5050148;28;20536;-79
2023/03/05 05:12:39;;;;;;;11.00;4.13;;;;;;;;;;5051374;28;20025;-80
2023/03/05 05:15:06;;;;;;;10.10;3.97;;;;;;;;;;5050078;28;20483;-78
2023/03/05 05:17:32;;;;;;;11.47;4.00;;;;;;;;;;5051349;28;20480;-79
2023/03/05 05:20:05;;;;;;;11.53;4.80;;;;;;;;;;5052681;28;20044;-80
2023/03/05 05:22:31;;;;;;;9.50;4.50;;;;;;;;;;5014367;28;20018;-78
2023/03/05 05:24:56;;;;;;;9.03;4.30;;;;;;;;;;5011450;28;20025;-79
2023/03/05 05:27:22;;;;;;;9.10;5.03;;;;;;;;;;5032290;28;20393;-81
2023/03/05 05:29:51;;;;;;;10.57;4.27;;;;;;;;;;5032399;28;20028;-79
2023/03/05 05:32:19;;;;;;;7.80;4.00;;;;;;;;;;5050246;28;20029;-78
2023/03/05 05:34:44;;;;;;;9.83;4.63;;;;;;;;;;5050038;28;20547;-79
2023/03/05 05:37:10;;;;;;;8.70;4.47;;;;;;;;;;5052808;28;20025;-78
2023/03/05 05:39:36;;;;;;;6.17;3.80;;;;;;;;;;5038555;28;20049;-79
2023/03/05 05:42:02;;;;;;;7.03;4.10;;;;;;;;;;5031213;28;20092;-78
2023/03/05 05:44:27;;;;;;;7.67;3.90;;;;;;;;;;5030610;28;20025;-80
2023/03/05 05:46:53;;;;;;;5.40;3.77;;;;;;;;;;5034516;28;20056;-79
2023/03/05 05:49:18;;;;;;;9.70;3.67;;;;;;;;;;5029576;28;20022;-79
2023/03/05 05:51:44;;;;;;;7.20;4.20;;;;;;;;;;5028826;28;20064;-80
2023/03/05 05:54:13;;;;;;;9.97;4.70;;;;;;;;;;5029044;28;20021;-80
2023/03/05 05:56:40;;;;;;;12.43;4.57;;;;;;;;;;5030906;28;20040;-79
2023/03/05 05:59:06;;;;;;;9.33;4.43;;;;;;;;;;5029138;28;20029;-80
2023/03/05 06:01:32;;;;;;;13.50;5.33;;;;;;;;;;5029711;28;20063;-78
2023/03/05 06:03:58;;;;;;;8.43;4.20;;;;;;;;;;5029800;28;20029;-79
2023/03/05 06:06:25;;;;;;;12.93;4.77;;;;;;;;;;5029273;28;20365;-79
2023/03/05 06:08:53;;;;;;;7.17;3.63;;;;;;;;;;5031103;28;20049;-79
2023/03/05 06:11:19;;;;;;;8.50;4.00;;;;;;;;;;5038005;28;20579;-79
2023/03/05 06:13:47;;;;;;;6.07;3.73;;;;;;;;;;5050764;28;20100;-78
2023/03/05 06:16:18;;;;;;;6.00;3.60;;;;;;;;;;5051986;28;20039;-79
2023/03/05 06:18:44;;;;;;;6.28;3.28;;;;;;;;;;5053482;28;20021;-80
2023/03/05 06:21:12;;;;;;;6.43;3.93;;;;;;;;;;5054752;28;20083;-79
2023/03/05 06:23:38;;;;;;;7.50;3.33;;;;;;;;;;5055434;28;20020;-79
2023/03/05 06:26:06;;;;;;;5.40;3.10;;;;;;;;;;5047958;28;20485;-78
2023/03/05 06:28:33;;;;;;;15.47;5.17;;;;;;;;;;5032136;28;20034;-79
2023/03/05 06:31:04;;;;;;;7.37;2.73;;;;;;;;;;5032407;28;20039;-79
2023/03/05 06:33:30;;;;;;;4.82;2.33;;;;;;;;;;5033422;28;20029;-78
2023/03/05 06:35:56;;;;;;;5.10;2.50;;;;;;;;;;5032193;28;20060;-79
2023/03/05 06:38:22;;;;;;;4.83;2.27;;;;;;;;;;5031929;28;20056;-80
2023/03/05 06:40:47;;;;;;;3.83;2.43;;;;;;;;;;5033306;28;20045;-79
2023/03/05 06:43:12;;;;;;;7.47;2.10;;;;;;;;;;5033985;28;20040;-78
2023/03/05 06:45:38;;;;;;;4.60;2.53;;;;;;;;;;5033032;28;20029;-79
2023/03/05 06:48:04;;;;;;;6.90;2.20;;;;;;;;;;5054136;28;20040;-79
2023/03/05 06:50:29;;;;;;;5.73;2.27;;;;;;;;;;5052801;28;20257;-79
2023/03/05 06:52:55;;;;;;;4.77;2.30;;;;;;;;;;5032851;28;20460;-78
2023/03/05 06:55:20;;;;;;;4.40;1.90;;;;;;;;;;5034033;28;20617;-80
2023/03/05 06:57:46;;;;;;;2.30;1.40;;;;;;;;;;5032701;28;20033;-79
2023/03/05 07:00:12;;;;;;;3.77;1.27;;;;;;;;;;5032860;28;20123;-80
2023/03/05 07:02:37;;;;;;;1.93;1.23;;;;;;;;;;5049272;28;20033;-79
2023/03/05 07:05:05;;;;;;;3.40;1.77;;;;;;;;;;5052404;28;20048;-78
2023/03/05 07:07:31;;;;;;;1.77;1.10;;;;;;;;;;5038365;28;20104;-79
2023/03/05 07:09:57;;;;;;;2.07;1.10;;;;;;;;;;5031997;28;20025;-79
2023/03/05 07:12:22;;;;;;;3.10;0.80;;;;;;;;;;5032165;28;20084;-81
2023/03/05 07:14:48;;;;;;;2.30;1.13;;;;;;;;;;5032210;28;20037;-79
2023/03/05 07:17:14;;;;;;;2.40;0.80;;;;;;;;;;5044177;28;20082;-80
2023/03/05 07:19:40;;;;;;;4.17;1.07;;;;;;;;;;5052917;28;20021;-79
2023/03/05 07:22:07;;;;;;;8.33;1.50;;;;;;;;;;5052013;28;20083;-79
2023/03/05 07:24:32;;;;;;;1.17;0.80;;;;;;;;;;5053772;28;20476;-78
2023/03/05 07:26:58;;;;;;;1.90;0.90;;;;;;;;;;5052870;28;20032;-79
2023/03/05 07:29:25;;;;;;;4.73;1.20;;;;;;;;;;5053137;28;20032;-79
2023/03/05 07:31:51;;;;;;;2.90;1.10;;;;;;;;;;5053593;28;20029;-81
2023/03/05 07:34:17;;;;;;;2.03;0.60;;;;;;;;;;5051975;28;20079;-79
2023/03/05 07:36:43;;;;;;;1.27;0.80;;;;;;;;;;5051988;28;20481;-79
2023/03/05 07:39:10;;;;;;;0.70;0.70;;;;;;;;;;5045539;28;20053;-79
2023/03/05 07:41:36;;;;;;;1.90;0.63;;;;;;;;;;5037085;28;20060;-80
2023/03/05 07:44:02;;;;;;;1.07;0.77;;;;;;;;;;5052791;28;20060;-78
2023/03/05 07:46:30;;;;;;;1.03;0.77;;;;;;;;;;5049183;28;20504;-78
2023/03/05 07:48:56;;;;;;;4.33;1.20;;;;;;;;;;5032804;28;20025;-79
2023/03/05 07:51:23;;;;;;;3.43;1.03;;;;;;;;;;5033909;28;20037;-82
2023/03/05 07:53:50;;;;;;;1.27;0.60;;;;;;;;;;5051159;28;20032;-80
2023/03/05 07:56:34;;;;;;;2.50;0.60;;;;;;;;;;5048795;28;20041;-78
2023/03/05 07:59:06;;;;;;;3.73;0.70;;;;;;;;;;5050692;28;20061;-78
2023/03/05 08:01:31;;;;;;;;;;;;;;;;;;5051652;28;20043;-79
2023/03/05 08:03:57;;;;;;;0.63;0.30;;;;;;;;;;5051982;28;19912;-81
2023/03/05 08:06:22;;;;;;;2.53;0.67;;;;;;;;;;5055520;28;20033;-80
2023/03/05 08:08:48;;;;;;;0.40;0.40;;;;;;;;;;5050268;28;20028;-80
2023/03/05 08:11:15;;;;;;;5.40;0.90;;;;;;;;;;5049917;28;20029;-77
2023/03/05 08:13:41;;;;;;;5.93;1.33;;;;;;;;;;5052701;28;20427;-79
2023/03/05 08:16:10;;;;;;;2.10;0.80;;;;;;;;;;5050593;28;20036;-79
2023/03/05 08:18:36;;;;;;;1.37;0.90;;;;;;;;;;5052617;28;20047;-79
2023/03/05 08:21:03;;;;;;;1.30;0.90;;;;;;;;;;5051680;28;20024;-79
2023/03/05 08:23:28;;;;;;;2.97;1.30;;;;;;;;;;5031811;28;20503;-79
2023/03/05 08:25:54;;;;;;;6.13;1.30;;;;;;;;;;5032508;28;20180;-79
2023/03/05 08:28:20;;;;;;;0.70;0.70;;;;;;;;;;5047853;28;20043;-80
2023/03/05 08:30:47;;;;;;;9.53;2.00;;;;;;;;;;5052073;28;20036;-80
2023/03/05 08:33:13;;;;;;;1.03;0.50;;;;;;;;;;5034226;28;20040;-77
2023/03/05 08:35:39;;;;;;;0.70;0.40;;;;;;;;;;5031283;28;20033;-79
2023/03/05 08:38:05;;;;;;;2.83;1.33;;;;;;;;;;5031880;28;20033;-80
2023/03/05 08:40:31;;;;;;;0.73;0.73;;;;;;;;;;5013245;28;20088;-79
2023/03/05 08:42:58;;;;;;;1.67;0.30;;;;;;;;;;5031584;28;20049;-80
2023/03/05 08:45:26;;;;;;;0.60;0.60;;;;;;;;;;5031924;28;20025;-78
2023/03/05 08:47:52;;;;;;;3.70;1.53;;;;;;;;;;5040790;28;20021;-79
2023/03/05 08:50:18;;;;;;;1.60;1.00;;;;;;;;;;5030678;28;20386;-79
2023/03/05 08:52:44;;;;;;;4.03;1.40;;;;;;;;;;5043464;28;20036;-80
2023/03/05 08:55:11;;;;;;;1.27;0.60;;;;;;;;;;5052150;28;20056;-81
2023/03/05 08:57:37;;;;;;;0.50;0.50;;;;;;;;;;5040578;28;20401;-78
2023/03/05 09:00:02;;;;;;;1.50;0.43;;;;;;;;;;5030129;28;20125;-79
2023/03/05 09:02:28;;;;;;;0.43;0.30;;;;;;;;;;5029691;28;20037;-79
2023/03/05 09:04:54;;;;;;;0.50;0.40;;;;;;;;;;5032238;28;20492;-80
2023/03/05 09:07:20;;;;;;;2.10;0.47;;;;;;;;;;5037423;28;20024;-79
2023/03/05 09:09:45;;;;;;;0.87;0.60;;;;;;;;;;5051382;28;20452;-79
2023/03/05 09:12:12;;;;;;;0.73;0.40;;;;;;;;;;5046178;28;20103;-80
2023/03/05 09:14:38;;;;;;;1.40;0.77;;;;;;;;;;5031961;28;20057;-79
2023/03/05 09:17:04;;;;;;;2.00;0.50;;;;;;;;;;5035993;28;20021;-78
2023/03/05 09:19:30;;;;;;;0.67;0.40;;;;;;;;;;5050671;28;20021;-79
2023/03/05 09:21:56;;;;;;;3.97;0.57;;;;;;;;;;5047349;28;20425;-78
2023/03/05 09:24:21;;;;;;;4.90;0.83;;;;;;;;;;5029209;28;20025;-79
2023/03/05 09:26:47;;;;;;;0.50;0.30;;;;;;;;;;5031671;28;20167;-80
2023/03/05 09:29:12;;;;;;;1.70;0.40;;;;;;;;;;5031053;28;20033;-79
2023/03/05 09:31:38;;;;;;;0.87;0.43;;;;;;;;;;5029645;28;20036;-79
2023/03/05 09:34:04;;;;;;;0.70;0.63;;;;;;;;;;5031795;28;20041;-80
2023/03/05 09:36:31;;;;;;;2.70;0.70;;;;;;;;;;5031098;28;20041;-79
2023/03/05 09:38:57;;;;;;;0.97;0.50;;;;;;;;;;5043841;28;20128;-80
2023/03/05 09:42:05;;;;;;;0.83;0.50;;;;;;;;;;5033243;28;20106;-80
2023/03/05 09:45:01;;;;;;;1.73;1.10;;;;;;;;;;5031145;28;20120;-78
2023/03/05 09:47:33;;;;;;;1.00;0.50;;;;;;;;;;5030137;28;20523;-81
2023/03/05 09:50:09;;;;;;;1.98;1.17;;;;;;;;;;5031143;28;20025;-80
2023/03/05 09:52:43;;;;;;;1.10;1.00;;;;;;;;;;5030538;28;20086;-79
2023/03/05 09:55:19;;;;;;;0.90;0.73;;;;;;;;;;5031246;28;20043;-79
2023/03/05 09:57:50;;;;;;;0.70;0.70;;;;;;;;;;5029827;28;20036;-80
2023/03/05 10:01:02;;;;;;;0.75;0.43;;;;;;;;;;5029858;28;20024;-80
2023/03/05 10:03:57;;;;;;;1.13;0.80;;;;;;;;;;5027750;28;20045;-79
2023/03/05 10:06:26;;;;;;;1.10;0.70;;;;;;;;;;5028991;28;20038;-80
2023/03/05 10:09:27;;;;;;;3.97;0.60;;;;;;;;;;5046889;28;20037;-80
2023/03/05 10:12:00;;;;;;;3.60;0.50;;;;;;;;;;5050996;28;20045;-81
2023/03/05 10:14:27;;;;;;;0.70;0.67;;;;;;;;;;5049752;28;20025;-79
2023/03/05 10:17:18;;;;;;;1.40;0.90;;;;;;;;;;5050130;28;20075;-80
2023/03/05 10:19:52;;;;;;;1.17;1.00;;;;;;;;;;5050764;28;20047;-80
2023/03/05 10:22:25;;;;;;;2.67;0.80;;;;;;;;;;5048970;28;20468;-80
2023/03/05 10:25:27;;;;;;;2.30;0.70;;;;;;;;;;5013525;28;20030;-80
2023/03/05 10:28:04;;;;;;;2.25;1.10;;;;;;;;;;5029816;28;20029;-81
2023/03/05 10:30:53;;;;;;;2.03;0.97;;;;;;;;;;5030560;28;20029;-79
2023/03/05 10:33:21;;;;;;;1.47;0.70;;;;;;;;;;5043340;28;20063;-81
2023/03/05 10:36:14;;;;;;;1.20;1.10;;;;;;;;;;5049729;28;20385;-81
2023/03/05 10:38:48;;;;;;;;;;;;;;;;;;5052084;28;20033;-80
2023/03/05 10:41:40;;;;;;;3.30;0.93;;;;;;;;;;5049441;28;19923;-79
2023/03/05 10:44:14;;;;;;;1.05;0.93;;;;;;;;;;5049550;28;20060;-79
2023/03/05 10:46:40;;;;;;;2.30;1.10;;;;;;;;;;5050809;28;20029;-81
2023/03/05 10:49:25;;;;;;;2.43;1.17;;;;;;;;;;5032564;28;20021;-78
2023/03/05 10:51:56;;;;;;;1.30;1.20;;;;;;;;;;5032447;28;20029;-80
2023/03/05 10:54:27;;;;;;;2.87;1.03;;;;;;;;;;5048896;28;20044;-80
2023/03/05 10:57:11;;;;;;;2.70;1.48;;;;;;;;;;5049907;28;20270;-79
2023/03/05 10:59:58;;;;;;;2.23;1.30;;;;;;;;;;5031200;28;20018;-81
2023/03/05 11:02:25;;;;;;;1.97;1.07;;;;;;;;;;5027408;28;20079;-79
2023/03/05 11:04:52;;;;;;;1.03;0.93;;;;;;;;;;5055840;28;20104;-80
2023/03/05 11:07:17;;;;;;;1.17;0.80;;;;;;;;;;5055191;28;20109;-81
2023/03/05 11:10:18;;;;;;;1.23;0.93;;;;;;;;;;5053030;28;20043;-79
2023/03/05 11:12:44;;;;;;;2.73;1.00;;;;;;;;;;5053012;28;20224;-79
2023/03/05 11:15:12;;;;;;;2.23;0.73;;;;;;;;;;5054818;28;20119;-82
2023/03/05 11:17:43;;;;;;;0.90;0.80;;;;;;;;;;5055013;28;20020;-81
2023/03/05 11:20:30;;;;;;;2.50;1.00;;;;;;;;;;5053346;28;20093;-78
2023/03/05 11:23:13;;;;;;;1.37;1.00;;;;;;;;;;5055190;28;20416;-79
2023/03/05 11:25:59;;;;;;;1.77;0.87;;;;;;;;;;5053603;28;20029;-79
2023/03/05 11:28:37;;;;;;;1.23;0.80;;;;;;;;;;5046713;28;20029;-79
2023/03/05 11:31:12;;;;;;;1.50;1.17;;;;;;;;;;5034391;28;20094;-79
2023/03/05 11:33:39;;;;;;;1.73;0.60;;;;;;;;;;5034612;28;20056;-80
2023/03/05 11:36:34;;;;;;;0.83;0.70;;;;;;;;;;5035251;28;20025;-80
2023/03/05 11:39:14;;;;;;;2.27;0.90;;;;;;;;;;5034597;28;20131;-79
2023/03/05 11:41:48;;;;;;;1.87;0.83;;;;;;;;;;5033620;28;20041;-80
2023/03/05 11:44:33;;;;;;;0.80;0.60;;;;;;;;;;5033214;28;20043;-78
2023/03/05 11:47:03;;;;;;;2.23;0.80;;;;;;;;;;5032085;28;20025;-79
2023/03/05 11:49:42;;;;;;;1.47;0.80;;;;;;;;;;5033550;28;20038;-81
2023/03/05 11:52:13;;;;;;;1.97;0.70;;;;;;;;;;5031934;28;20044;-79
2023/03/05 11:55:13;;;;;;;2.85;0.68;;;;;;;;;;5033845;28;20037;-80
2023/03/05 11:57:51;;;;;;;2.23;1.00;;;;;;;;;;5033401;28;20299;-80
2023/03/05 12:00:23;;;;;;;0.50;0.40;;;;;;;;;;5052664;28;20440;-80
2023/03/05 12:02:53;;;;;;;2.95;0.70;;;;;;;;;;5052923;28;20033;-80
2023/03/05 12:05:20;;;;;;;0.43;0.43;;;;;;;;;;5032845;28;20501;-78
2023/03/05 12:07:49;;;;;;;2.43;0.97;;;;;;;;;;5032217;28;20393;-80
2023/03/05 12:10:24;;;;;;;2.33;0.70;;;;;;;;;;5052276;28;20449;-81
2023/03/05 12:13:16;;;;;;;3.43;1.00;;;;;;;;;;5035457;28;20029;-79
2023/03/05 12:15:45;;;;;;;3.55;1.13;;;;;;;;;;5052619;28;20043;-79
2023/03/05 12:18:32;;;;;;;1.33;0.80;;;;;;;;;;5049492;28;20072;-80
2023/03/05 12:21:35;;;;;;;1.77;0.70;;;;;;;;;;5034369;28;20524;-79
2023/03/05 12:24:23;;;;;;;5.10;0.90;;;;;;;;;;5041066;28;20396;-80
2023/03/05 12:26:51;;;;;;;2.67;1.00;;;;;;;;;;5052107;28;20037;-79
2023/03/05 12:29:46;;;;;;;3.43;1.03;;;;;;;;;;5040396;28;20079;-80
2023/03/05 12:32:21;;;;;;;8.33;2.47;;;;;;;;;;5030333;28;20037;-80
2023/03/05 12:34:49;;;;;;;2.27;0.80;;;;;;;;;;5047529;28;20484;-81
2023/03/05 12:37:22;;;;;;;0.67;0.67;;;;;;;;;;5052429;28;20043;-78
2023/03/05 12:40:09;;;;;;;3.83;0.90;;;;;;;;;;5035589;28;20045;-81
2023/03/05 12:42:42;;;;;;;2.73;0.60;;;;;;;;;;5030358;28;20083;-80
2023/03/05 12:45:15;;;;;;;1.60;0.60;;;;;;;;;;5030621;28;20072;-80
2023/03/05 12:47:55;;;;;;;2.83;0.70;;;;;;;;;;5030353;28;20452;-79
2023/03/05 12:50:27;;;;;;;2.63;0.80;;;;;;;;;;5030950;28;20045;-79
2023/03/05 12:52:52;;;;;;;0.98;0.65;;;;;;;;;;5031344;28;20543;-79
2023/03/05 12:55:47;;;;;;;2.80;0.93;;;;;;;;;;5030206;28;20025;-80
2023/03/05 12:58:33;;;;;;;1.23;0.83;;;;;;;;;;5016368;28;20033;-80
2023/03/05 13:00:59;;;;;;;2.00;0.70;;;;;;;;;;5032867;28;20033;-80
2023/03/05 13:03:30;;;;;;;1.23;0.70;;;;;;;;;;5032958;28;20032;-79
2023/03/05 13:05:59;;;;;;;2.15;0.80;;;;;;;;;;5032546;28;20048;-80
2023/03/05 13:08:34;;;;;;;3.57;1.00;;;;;;;;;;5031894;28;20025;-79
2023/03/05 13:11:05;;;;;;;1.70;0.70;;;;;;;;;;5031786;28;20036;-79
2023/03/05 13:13:40;;;;;;;1.20;0.60;;;;;;;;;;5029618;28;20068;-79
2023/03/05 13:16:19;;;;;;;0.70;0.63;;;;;;;;;;5031539;28;20136;-80
2023/03/05 13:18:47;;;;;;;3.03;1.00;;;;;;;;;;5030268;28;20033;-80
2023/03/05 13:21:18;;;;;;;3.30;1.40;;;;;;;;;;5029882;28;20116;-81
2023/03/05 13:23:56;;;;;;;2.43;0.90;;;;;;;;;;5031223;28;20124;-83
2023/03/05 13:26:42;;;;;;;1.20;0.80;;;;;;;;;;5030637;28;20689;-79
2023/03/05 13:29:11;;;;;;;0.83;0.83;;;;;;;;;;5029761;28;20037;-78
2023/03/05 13:31:43;;;;;;;2.13;0.73;;;;;;;;;;5030065;28;20045;-78
2023/03/05 13:34:17;;;;;;;;;;;;;;;;;;5038018;28;20522;-80
2023/03/05 13:36:56;;;;;;;0.87;0.60;;;;;;;;;;5051640;28;20272;-80
2023/03/05 13:39:29;;;;;;;1.80;0.70;;;;;;;;;;5042305;28;20107;-79
2023/03/05 13:42:04;;;;;;;3.47;1.20;;;;;;;;;;5031776;28;20035;-78
2023/03/05 13:44:31;;;;;;;1.10;0.87;;;;;;;;;;5029767;28;20030;-80
2023/03/05 13:47:16;;;;;;;1.90;1.20;;;;;;;;;;5031977;28;20101;-80
2023/03/05 13:49:42;;;;;;;2.97;1.07;;;;;;;;;;5029772;28;20113;-77
2023/03/05 13:52:09;;;;;;;3.07;1.20;;;;;;;;;;5030191;28;20389;-80
2023/03/05 13:54:34;;;;;;;4.50;1.20;;;;;;;;;;5030105;28;20101;-80
2023/03/05 13:57:04;;;;;;;1.10;0.93;;;;;;;;;;5030324;28;20094;-79
2023/03/05 13:59:35;;;;;;;1.30;0.80;;;;;;;;;;5031092;28;20028;-80
2023/03/05 14:02:13;;;;;;;2.67;0.70;;;;;;;;;;5030396;28;20021;-83
2023/03/05 14:04:42;;;;;;;1.00;0.90;;;;;;;;;;5032560;28;20098;-81
2023/03/05 14:07:38;;;;;;;2.30;1.00;;;;;;;;;;5031822;28;20017;-79
2023/03/05 14:10:35;;;;;;;1.20;0.93;;;;;;;;;;5029264;28;20041;-78
2023/03/05 14:13:10;;;;;;;4.53;1.63;;;;;;;;;;5031822;28;20152;-80
2023/03/05 14:15:36;;;;;;;2.20;1.10;;;;;;;;;;5031136;28;20044;-79
2023/03/05 14:18:11;;;;;;;1.53;1.13;;;;;;;;;;5030465;28;20030;-80
2023/03/05 14:20:56;;;;;;;4.53;1.23;;;;;;;;;;5046337;28;20061;-80
2023/03/05 14:23:31;;;;;;;4.27;1.33;;;;;;;;;;5051570;28;20033;-79
2023/03/05 14:26:18;;;;;;;3.00;1.20;;;;;;;;;;5049010;28;20469;-79
2023/03/05 14:29:05;;;;;;;3.50;1.30;;;;;;;;;;5048775;28;20021;-80
2023/03/05 14:31:54;;;;;;;1.50;1.07;;;;;;;;;;5030798;28;20033;-80
2023/03/05 14:34:28;;;;;;;2.00;1.00;;;;;;;;;;5029972;28;20408;-81
2023/03/05 14:36:58;;;;;;;3.53;1.10;;;;;;;;;;5029488;28;20017;-81
2023/03/05 14:39:48;;;;;;;2.93;1.30;;;;;;;;;;5033582;28;20522;-80
2023/03/05 14:42:26;;;;;;;1.40;0.93;;;;;;;;;;5032815;28;20124;-79
2023/03/05 14:44:54;;;;;;;0.87;0.87;;;;;;;;;;5042674;28;20459;-80
2023/03/05 14:47:22;;;;;;;1.77;1.03;;;;;;;;;;5052993;28;20040;-80
2023/03/05 14:49:48;;;;;;;1.03;0.80;;;;;;;;;;5046087;28;20017;-80
2023/03/05 14:52:15;;;;;;;2.00;1.43;;;;;;;;;;5033033;28;20116;-80
2023/03/05 14:54:41;;;;;;;0.83;0.83;;;;;;;;;;5040547;28;20043;-80
2023/03/05 14:57:11;;;;;;;2.33;1.37;;;;;;;;;;5055082;28;20029;-80